sensor_id;sensor_type;location;lat;lon;timestamp;P1;durP1;ratioP1;P2;durP2;ratioP2
41436;SDS011;27178;49.460;10.850;2023-09-18T00:00:50;3.80;;;3.50;;
41436;SDS011;27178;49.460;10.850;2023-09-18T00:03:19;3.45;;;3.25;;
41436;SDS011;27178;49.460;10.850;2023-09-18T00:05:47;4.03;;;3.53;;
41436;SDS011;27178;49.460;10.850;2023-09-18T00:08:16;4.30;;;3.90;;
41436;SDS011;27178;49.460;10.850;2023-09-18T00:10:47;4.43;;;3.83;;
41436;SDS011;27178;49.460;10.850;2023-09-18T00:13:22;4.10;;;3.80;;
41436;SDS011;27178;49.460;10.850;2023-09-18T00:15:53;4.30;;;3.50;;
41436;SDS011;27178;49.460;10.850;2023-09-18T00:18:41;4.85;;;3.60;;
41436;SDS011;27178;49.460;10.850;2023-09-18T00:21:11;4.10;;;3.80;;
41436;SDS011;27178;49.460;10.850;2023-09-18T00:23:39;3.92;;;3.63;;
41436;SDS011;27178;49.460;10.850;2023-09-18T00:26:08;4.13;;;3.72;;
41436;SDS011;27178;49.460;10.850;2023-09-18T00:28:37;3.75;;;3.33;;
41436;SDS011;27178;49.460;10.850;2023-09-18T00:31:05;3.80;;;3.50;;
41436;SDS011;27178;49.460;10.850;2023-09-18T00:33:34;3.58;;;3.38;;
41436;SDS011;27178;49.460;10.850;2023-09-18T00:36:03;4.10;;;3.67;;
41436;SDS011;27178;49.460;10.850;2023-09-18T00:38:31;3.95;;;3.65;;
41436;SDS011;27178;49.460;10.850;2023-09-18T00:41:00;3.55;;;3.35;;
41436;SDS011;27178;49.460;10.850;2023-09-18T00:43:29;3.90;;;3.60;;
41436;SDS011;27178;49.460;10.850;2023-09-18T00:45:58;3.65;;;3.35;;
41436;SDS011;27178;49.460;10.850;2023-09-18T00:48:27;4.13;;;3.40;;
41436;SDS011;27178;49.460;10.850;2023-09-18T00:50:56;4.18;;;3.80;;
41436;SDS011;27178;49.460;10.850;2023-09-18T00:53:24;3.67;;;3.35;;
41436;SDS011;27178;49.460;10.850;2023-09-18T00:55:54;4.45;;;3.40;;
41436;SDS011;27178;49.460;10.850;2023-09-18T00:58:25;3.40;;;3.20;;
41436;SDS011;27178;49.460;10.850;2023-09-18T01:00:55;3.95;;;3.65;;
41436;SDS011;27178;49.460;10.850;2023-09-18T01:03:23;4.03;;;3.72;;
41436;SDS011;27178;49.460;10.850;2023-09-18T01:05:53;4.10;;;3.70;;
41436;SDS011;27178;49.460;10.850;2023-09-18T01:08:21;3.72;;;3.42;;
41436;SDS011;27178;49.460;10.850;2023-09-18T01:10:53;3.72;;;3.42;;
41436;SDS011;27178;49.460;10.850;2023-09-18T01:13:30;3.83;;;3.47;;
41436;SDS011;27178;49.460;10.850;2023-09-18T01:16:07;3.80;;;3.50;;
41436;SDS011;27178;49.460;10.850;2023-09-18T01:18:39;3.90;;;3.60;;
41436;SDS011;27178;49.460;10.850;2023-09-18T01:21:18;3.35;;;3.15;;
41436;SDS011;27178;49.460;10.850;2023-09-18T01:23:48;3.50;;;3.20;;
41436;SDS011;27178;49.460;10.850;2023-09-18T01:26:17;3.78;;;3.47;;
41436;SDS011;27178;49.460;10.850;2023-09-18T01:28:46;3.40;;;3.20;;
41436;SDS011;27178;49.460;10.850;2023-09-18T01:31:14;6.68;;;3.33;;
41436;SDS011;27178;49.460;10.850;2023-09-18T01:33:44;3.50;;;3.20;;
41436;SDS011;27178;49.460;10.850;2023-09-18T01:36:14;3.90;;;3.60;;
41436;SDS011;27178;49.460;10.850;2023-09-18T01:38:44;3.60;;;3.30;;
41436;SDS011;27178;49.460;10.850;2023-09-18T01:41:15;3.22;;;3.03;;
41436;SDS011;27178;49.460;10.850;2023-09-18T01:43:43;3.60;;;3.30;;
41436;SDS011;27178;49.460;10.850;2023-09-18T01:46:12;3.30;;;3.00;;
41436;SDS011;27178;49.460;10.850;2023-09-18T01:48:45;3.78;;;3.47;;
41436;SDS011;27178;49.460;10.850;2023-09-18T01:51:14;3.90;;;3.63;;
41436;SDS011;27178;49.460;10.850;2023-09-18T01:53:42;3.60;;;3.30;;
41436;SDS011;27178;49.460;10.850;2023-09-18T01:56:11;3.28;;;3.08;;
41436;SDS011;27178;49.460;10.850;2023-09-18T01:58:41;3.47;;;3.28;;
41436;SDS011;27178;49.460;10.850;2023-09-18T02:01:09;3.50;;;3.30;;
41436;SDS011;27178;49.460;10.850;2023-09-18T02:03:38;3.53;;;3.22;;
41436;SDS011;27178;49.460;10.850;2023-09-18T02:06:28;3.50;;;3.20;;
41436;SDS011;27178;49.460;10.850;2023-09-18T02:08:57;3.42;;;3.22;;
41436;SDS011;27178;49.460;10.850;2023-09-18T02:11:25;4.22;;;3.65;;
41436;SDS011;27178;49.460;10.850;2023-09-18T02:13:55;3.53;;;3.28;;
41436;SDS011;27178;49.460;10.850;2023-09-18T02:16:23;3.85;;;3.40;;
41436;SDS011;27178;49.460;10.850;2023-09-18T02:18:54;3.38;;;3.13;;
41436;SDS011;27178;49.460;10.850;2023-09-18T02:21:23;4.00;;;3.70;;
41436;SDS011;27178;49.460;10.850;2023-09-18T02:23:52;3.40;;;3.20;;
41436;SDS011;27178;49.460;10.850;2023-09-18T02:26:21;3.95;;;3.65;;
41436;SDS011;27178;49.460;10.850;2023-09-18T02:28:51;3.67;;;3.38;;
41436;SDS011;27178;49.460;10.850;2023-09-18T02:31:21;3.30;;;3.10;;
41436;SDS011;27178;49.460;10.850;2023-09-18T02:33:50;4.03;;;3.28;;
41436;SDS011;27178;49.460;10.850;2023-09-18T02:36:18;3.97;;;3.67;;
41436;SDS011;27178;49.460;10.850;2023-09-18T02:38:46;3.67;;;3.38;;
41436;SDS011;27178;49.460;10.850;2023-09-18T02:41:14;3.75;;;3.38;;
41436;SDS011;27178;49.460;10.850;2023-09-18T02:43:43;3.70;;;3.40;;
41436;SDS011;27178;49.460;10.850;2023-09-18T02:46:11;4.10;;;3.67;;
41436;SDS011;27178;49.460;10.850;2023-09-18T02:48:41;3.38;;;3.17;;
41436;SDS011;27178;49.460;10.850;2023-09-18T02:51:08;3.35;;;3.08;;
41436;SDS011;27178;49.460;10.850;2023-09-18T02:53:36;3.25;;;3.05;;
41436;SDS011;27178;49.460;10.850;2023-09-18T02:56:05;3.20;;;3.00;;
41436;SDS011;27178;49.460;10.850;2023-09-18T02:58:33;3.70;;;3.40;;
41436;SDS011;27178;49.460;10.850;2023-09-18T03:01:02;3.60;;;3.30;;
41436;SDS011;27178;49.460;10.850;2023-09-18T03:03:32;3.60;;;3.30;;
41436;SDS011;27178;49.460;10.850;2023-09-18T03:06:03;4.00;;;3.70;;
41436;SDS011;27178;49.460;10.850;2023-09-18T03:08:32;3.78;;;3.47;;
41436;SDS011;27178;49.460;10.850;2023-09-18T03:11:01;3.50;;;3.20;;
41436;SDS011;27178;49.460;10.850;2023-09-18T03:13:30;3.50;;;3.20;;
41436;SDS011;27178;49.460;10.850;2023-09-18T03:15:58;3.42;;;3.22;;
41436;SDS011;27178;49.460;10.850;2023-09-18T03:18:27;3.75;;;3.45;;
41436;SDS011;27178;49.460;10.850;2023-09-18T03:20:55;4.07;;;3.78;;
41436;SDS011;27178;49.460;10.850;2023-09-18T03:23:24;3.65;;;3.35;;
41436;SDS011;27178;49.460;10.850;2023-09-18T03:25:52;3.50;;;3.30;;
41436;SDS011;27178;49.460;10.850;2023-09-18T03:28:21;3.53;;;3.30;;
41436;SDS011;27178;49.460;10.850;2023-09-18T03:30:49;4.15;;;3.40;;
41436;SDS011;27178;49.460;10.850;2023-09-18T03:33:18;3.47;;;3.20;;
41436;SDS011;27178;49.460;10.850;2023-09-18T03:35:46;4.00;;;3.67;;
41436;SDS011;27178;49.460;10.850;2023-09-18T03:38:16;3.63;;;3.42;;
41436;SDS011;27178;49.460;10.850;2023-09-18T03:40:46;3.97;;;3.67;;
41436;SDS011;27178;49.460;10.850;2023-09-18T03:43:14;3.60;;;3.30;;
41436;SDS011;27178;49.460;10.850;2023-09-18T03:45:43;3.85;;;3.55;;
41436;SDS011;27178;49.460;10.850;2023-09-18T03:48:11;3.70;;;3.40;;
41436;SDS011;27178;49.460;10.850;2023-09-18T03:50:40;3.13;;;2.92;;
41436;SDS011;27178;49.460;10.850;2023-09-18T03:53:09;3.65;;;3.45;;
41436;SDS011;27178;49.460;10.850;2023-09-18T03:55:37;3.92;;;3.63;;
41436;SDS011;27178;49.460;10.850;2023-09-18T03:58:07;3.83;;;3.53;;
41436;SDS011;27178;49.460;10.850;2023-09-18T04:00:35;3.60;;;3.40;;
41436;SDS011;27178;49.460;10.850;2023-09-18T04:03:03;3.65;;;3.35;;
41436;SDS011;27178;49.460;10.850;2023-09-18T04:05:31;3.63;;;3.38;;
41436;SDS011;27178;49.460;10.850;2023-09-18T04:08:00;3.80;;;3.50;;
41436;SDS011;27178;49.460;10.850;2023-09-18T04:10:29;3.83;;;3.53;;
41436;SDS011;27178;49.460;10.850;2023-09-18T04:12:57;3.33;;;3.13;;
41436;SDS011;27178;49.460;10.850;2023-09-18T04:15:26;3.70;;;3.40;;
41436;SDS011;27178;49.460;10.850;2023-09-18T04:17:56;4.07;;;3.28;;
41436;SDS011;27178;49.460;10.850;2023-09-18T04:20:24;3.78;;;3.47;;
41436;SDS011;27178;49.460;10.850;2023-09-18T04:25:46;3.72;;;3.42;;
41436;SDS011;27178;49.460;10.850;2023-09-18T04:28:15;4.10;;;3.80;;
41436;SDS011;27178;49.460;10.850;2023-09-18T04:30:46;3.47;;;3.17;;
41436;SDS011;27178;49.460;10.850;2023-09-18T04:33:14;3.85;;;3.50;;
41436;SDS011;27178;49.460;10.850;2023-09-18T04:35:43;4.13;;;3.72;;
41436;SDS011;27178;49.460;10.850;2023-09-18T04:38:12;4.30;;;3.97;;
41436;SDS011;27178;49.460;10.850;2023-09-18T04:40:42;3.95;;;3.55;;
41436;SDS011;27178;49.460;10.850;2023-09-18T04:43:10;3.90;;;3.60;;
41436;SDS011;27178;49.460;10.850;2023-09-18T04:45:38;3.40;;;3.20;;
41436;SDS011;27178;49.460;10.850;2023-09-18T04:48:07;4.65;;;3.63;;
41436;SDS011;27178;49.460;10.850;2023-09-18T04:50:36;4.10;;;3.80;;
41436;SDS011;27178;49.460;10.850;2023-09-18T04:53:04;4.60;;;4.20;;
41436;SDS011;27178;49.460;10.850;2023-09-18T04:55:32;4.03;;;3.72;;
41436;SDS011;27178;49.460;10.850;2023-09-18T04:58:01;3.80;;;3.50;;
41436;SDS011;27178;49.460;10.850;2023-09-18T05:00:30;4.65;;;4.15;;
41436;SDS011;27178;49.460;10.850;2023-09-18T05:02:59;4.15;;;3.85;;
41436;SDS011;27178;49.460;10.850;2023-09-18T05:05:31;3.97;;;3.60;;
41436;SDS011;27178;49.460;10.850;2023-09-18T05:08:00;4.00;;;3.70;;
41436;SDS011;27178;49.460;10.850;2023-09-18T05:10:31;4.20;;;3.80;;
41436;SDS011;27178;49.460;10.850;2023-09-18T05:12:59;4.10;;;3.80;;
41436;SDS011;27178;49.460;10.850;2023-09-18T05:15:29;3.97;;;3.63;;
41436;SDS011;27178;49.460;10.850;2023-09-18T05:17:58;3.95;;;3.35;;
41436;SDS011;27178;49.460;10.850;2023-09-18T05:20:27;3.58;;;3.33;;
41436;SDS011;27178;49.460;10.850;2023-09-18T05:22:58;3.58;;;3.38;;
41436;SDS011;27178;49.460;10.850;2023-09-18T05:25:29;3.55;;;3.28;;
41436;SDS011;27178;49.460;10.850;2023-09-18T05:27:59;3.80;;;3.50;;
41436;SDS011;27178;49.460;10.850;2023-09-18T05:30:29;3.60;;;3.38;;
41436;SDS011;27178;49.460;10.850;2023-09-18T05:33:01;3.97;;;3.70;;
41436;SDS011;27178;49.460;10.850;2023-09-18T05:35:31;4.00;;;3.70;;
41436;SDS011;27178;49.460;10.850;2023-09-18T05:38:01;4.10;;;3.80;;
41436;SDS011;27178;49.460;10.850;2023-09-18T05:40:30;4.43;;;4.03;;
41436;SDS011;27178;49.460;10.850;2023-09-18T05:42:59;4.13;;;3.83;;
41436;SDS011;27178;49.460;10.850;2023-09-18T05:45:27;4.55;;;4.25;;
41436;SDS011;27178;49.460;10.850;2023-09-18T05:47:55;4.38;;;3.97;;
41436;SDS011;27178;49.460;10.850;2023-09-18T05:50:31;4.28;;;3.97;;
41436;SDS011;27178;49.460;10.850;2023-09-18T05:53:01;4.40;;;4.10;;
41436;SDS011;27178;49.460;10.850;2023-09-18T05:55:30;4.28;;;3.75;;
41436;SDS011;27178;49.460;10.850;2023-09-18T05:57:59;4.22;;;3.92;;
41436;SDS011;27178;49.460;10.850;2023-09-18T06:00:29;4.13;;;3.80;;
41436;SDS011;27178;49.460;10.850;2023-09-18T06:02:58;3.88;;;3.58;;
41436;SDS011;27178;49.460;10.850;2023-09-18T06:05:26;4.30;;;3.90;;
41436;SDS011;27178;49.460;10.850;2023-09-18T06:07:58;4.35;;;4.05;;
41436;SDS011;27178;49.460;10.850;2023-09-18T06:10:28;4.05;;;3.75;;
41436;SDS011;27178;49.460;10.850;2023-09-18T06:12:58;4.50;;;4.10;;
41436;SDS011;27178;49.460;10.850;2023-09-18T06:15:32;4.15;;;3.85;;
41436;SDS011;27178;49.460;10.850;2023-09-18T06:18:00;4.25;;;3.85;;
41436;SDS011;27178;49.460;10.850;2023-09-18T06:20:29;4.00;;;3.70;;
41436;SDS011;27178;49.460;10.850;2023-09-18T06:22:58;5.32;;;4.07;;
41436;SDS011;27178;49.460;10.850;2023-09-18T06:25:27;5.03;;;4.00;;
41436;SDS011;27178;49.460;10.850;2023-09-18T06:27:57;5.22;;;3.80;;
41436;SDS011;27178;49.460;10.850;2023-09-18T06:30:26;4.13;;;3.83;;
41436;SDS011;27178;49.460;10.850;2023-09-18T06:32:56;4.55;;;4.13;;
41436;SDS011;27178;49.460;10.850;2023-09-18T06:35:24;4.93;;;4.05;;
41436;SDS011;27178;49.460;10.850;2023-09-18T06:37:53;4.28;;;3.97;;
41436;SDS011;27178;49.460;10.850;2023-09-18T06:40:25;4.38;;;4.07;;
41436;SDS011;27178;49.460;10.850;2023-09-18T06:42:59;4.70;;;4.30;;
41436;SDS011;27178;49.460;10.850;2023-09-18T06:45:27;4.15;;;3.85;;
41436;SDS011;27178;49.460;10.850;2023-09-18T06:47:55;4.20;;;3.90;;
41436;SDS011;27178;49.460;10.850;2023-09-18T06:50:24;4.85;;;4.50;;
41436;SDS011;27178;49.460;10.850;2023-09-18T06:52:52;4.82;;;4.50;;
41436;SDS011;27178;49.460;10.850;2023-09-18T06:55:20;4.32;;;4.03;;
41436;SDS011;27178;49.460;10.850;2023-09-18T06:57:51;4.68;;;4.28;;
41436;SDS011;27178;49.460;10.850;2023-09-18T07:00:21;4.50;;;4.20;;
41436;SDS011;27178;49.460;10.850;2023-09-18T07:02:49;5.40;;;4.05;;
41436;SDS011;27178;49.460;10.850;2023-09-18T07:05:17;4.75;;;3.80;;
41436;SDS011;27178;49.460;10.850;2023-09-18T07:07:46;4.25;;;3.88;;
41436;SDS011;27178;49.460;10.850;2023-09-18T07:10:14;4.88;;;4.40;;
41436;SDS011;27178;49.460;10.850;2023-09-18T07:12:42;4.22;;;3.75;;
41436;SDS011;27178;49.460;10.850;2023-09-18T07:15:10;4.50;;;3.90;;
41436;SDS011;27178;49.460;10.850;2023-09-18T07:17:40;4.00;;;3.70;;
41436;SDS011;27178;49.460;10.850;2023-09-18T07:20:09;4.47;;;4.07;;
41436;SDS011;27178;49.460;10.850;2023-09-18T07:25:23;4.13;;;3.83;;
41436;SDS011;27178;49.460;10.850;2023-09-18T07:27:52;3.80;;;3.50;;
41436;SDS011;27178;49.460;10.850;2023-09-18T07:30:20;4.25;;;3.88;;
41436;SDS011;27178;49.460;10.850;2023-09-18T07:32:50;4.35;;;3.95;;
41436;SDS011;27178;49.460;10.850;2023-09-18T07:35:18;5.90;;;3.53;;
41436;SDS011;27178;49.460;10.850;2023-09-18T07:37:46;4.00;;;3.70;;
41436;SDS011;27178;49.460;10.850;2023-09-18T07:40:15;4.05;;;3.75;;
41436;SDS011;27178;49.460;10.850;2023-09-18T07:42:43;3.88;;;3.55;;
41436;SDS011;27178;49.460;10.850;2023-09-18T07:45:12;4.15;;;3.85;;
41436;SDS011;27178;49.460;10.850;2023-09-18T07:47:40;3.67;;;3.38;;
41436;SDS011;27178;49.460;10.850;2023-09-18T07:50:10;3.70;;;3.40;;
41436;SDS011;27178;49.460;10.850;2023-09-18T07:52:38;4.20;;;3.80;;
41436;SDS011;27178;49.460;10.850;2023-09-18T07:55:07;3.90;;;3.60;;
41436;SDS011;27178;49.460;10.850;2023-09-18T07:57:36;5.20;;;3.45;;
41436;SDS011;27178;49.460;10.850;2023-09-18T08:00:05;3.90;;;3.60;;
41436;SDS011;27178;49.460;10.850;2023-09-18T08:02:38;3.28;;;2.95;;
41436;SDS011;27178;49.460;10.850;2023-09-18T08:05:07;4.40;;;3.58;;
41436;SDS011;27178;49.460;10.850;2023-09-18T08:07:37;4.65;;;3.88;;
41436;SDS011;27178;49.460;10.850;2023-09-18T08:10:07;3.80;;;3.45;;
41436;SDS011;27178;49.460;10.850;2023-09-18T08:12:36;4.50;;;3.80;;
41436;SDS011;27178;49.460;10.850;2023-09-18T08:15:05;4.43;;;3.97;;
41436;SDS011;27178;49.460;10.850;2023-09-18T08:17:35;3.55;;;3.13;;
41436;SDS011;27178;49.460;10.850;2023-09-18T08:20:04;5.70;;;4.00;;
41436;SDS011;27178;49.460;10.850;2023-09-18T08:22:40;6.80;;;3.47;;
41436;SDS011;27178;49.460;10.850;2023-09-18T08:25:09;4.70;;;3.55;;
41436;SDS011;27178;49.460;10.850;2023-09-18T08:27:38;5.57;;;3.40;;
41436;SDS011;27178;49.460;10.850;2023-09-18T08:30:09;6.38;;;3.45;;
41436;SDS011;27178;49.460;10.850;2023-09-18T08:32:37;4.25;;;3.47;;
41436;SDS011;27178;49.460;10.850;2023-09-18T08:35:07;4.63;;;3.00;;
41436;SDS011;27178;49.460;10.850;2023-09-18T08:37:35;3.58;;;3.28;;
41436;SDS011;27178;49.460;10.850;2023-09-18T08:40:05;3.78;;;3.05;;
41436;SDS011;27178;49.460;10.850;2023-09-18T08:42:38;6.65;;;3.80;;
41436;SDS011;27178;49.460;10.850;2023-09-18T08:45:08;4.22;;;2.80;;
41436;SDS011;27178;49.460;10.850;2023-09-18T08:47:38;3.45;;;3.15;;
41436;SDS011;27178;49.460;10.850;2023-09-18T08:50:08;3.42;;;3.10;;
41436;SDS011;27178;49.460;10.850;2023-09-18T08:52:37;4.55;;;2.80;;
41436;SDS011;27178;49.460;10.850;2023-09-18T08:55:08;4.93;;;3.35;;
41436;SDS011;27178;49.460;10.850;2023-09-18T08:57:38;5.25;;;2.83;;
41436;SDS011;27178;49.460;10.850;2023-09-18T09:00:07;3.78;;;2.88;;
41436;SDS011;27178;49.460;10.850;2023-09-18T09:02:38;5.45;;;3.10;;
41436;SDS011;27178;49.460;10.850;2023-09-18T09:05:06;2.90;;;2.65;;
41436;SDS011;27178;49.460;10.850;2023-09-18T09:07:34;4.43;;;2.70;;
41436;SDS011;27178;49.460;10.850;2023-09-18T09:10:03;4.65;;;2.70;;
41436;SDS011;27178;49.460;10.850;2023-09-18T09:12:51;4.65;;;2.83;;
41436;SDS011;27178;49.460;10.850;2023-09-18T09:15:24;5.03;;;2.70;;
41436;SDS011;27178;49.460;10.850;2023-09-18T09:18:02;6.82;;;2.53;;
41436;SDS011;27178;49.460;10.850;2023-09-18T09:20:32;4.03;;;2.95;;
41436;SDS011;27178;49.460;10.850;2023-09-18T09:23:02;4.32;;;2.42;;
41436;SDS011;27178;49.460;10.850;2023-09-18T09:25:31;2.78;;;2.38;;
41436;SDS011;27178;49.460;10.850;2023-09-18T09:28:02;8.77;;;2.47;;
41436;SDS011;27178;49.460;10.850;2023-09-18T09:30:32;5.38;;;2.53;;
41436;SDS011;27178;49.460;10.850;2023-09-18T09:33:03;6.57;;;2.20;;
41436;SDS011;27178;49.460;10.850;2023-09-18T09:35:33;3.85;;;2.00;;
41436;SDS011;27178;49.460;10.850;2023-09-18T09:38:06;6.97;;;2.72;;
41436;SDS011;27178;49.460;10.850;2023-09-18T09:40:38;2.38;;;1.80;;
41436;SDS011;27178;49.460;10.850;2023-09-18T09:43:08;4.28;;;1.95;;
41436;SDS011;27178;49.460;10.850;2023-09-18T09:45:40;5.03;;;2.30;;
41436;SDS011;27178;49.460;10.850;2023-09-18T09:48:09;6.00;;;2.05;;
41436;SDS011;27178;49.460;10.850;2023-09-18T09:50:43;5.75;;;2.25;;
41436;SDS011;27178;49.460;10.850;2023-09-18T09:53:14;4.07;;;1.95;;
41436;SDS011;27178;49.460;10.850;2023-09-18T09:55:42;3.28;;;2.00;;
41436;SDS011;27178;49.460;10.850;2023-09-18T09:58:12;7.75;;;2.45;;
41436;SDS011;27178;49.460;10.850;2023-09-18T10:00:41;5.28;;;2.13;;
41436;SDS011;27178;49.460;10.850;2023-09-18T10:03:13;3.95;;;1.83;;
41436;SDS011;27178;49.460;10.850;2023-09-18T10:05:43;3.65;;;2.28;;
41436;SDS011;27178;49.460;10.850;2023-09-18T10:08:14;4.95;;;2.38;;
41436;SDS011;27178;49.460;10.850;2023-09-18T10:10:46;2.30;;;1.80;;
41436;SDS011;27178;49.460;10.850;2023-09-18T10:13:17;2.75;;;1.90;;
41436;SDS011;27178;49.460;10.850;2023-09-18T10:15:48;5.65;;;2.17;;
41436;SDS011;27178;49.460;10.850;2023-09-18T10:18:18;5.20;;;1.63;;
41436;SDS011;27178;49.460;10.850;2023-09-18T10:20:56;4.05;;;1.80;;
41436;SDS011;27178;49.460;10.850;2023-09-18T10:23:34;3.00;;;1.70;;
41436;SDS011;27178;49.460;10.850;2023-09-18T10:26:11;3.42;;;1.80;;
41436;SDS011;27178;49.460;10.850;2023-09-18T10:28:46;4.03;;;1.80;;
41436;SDS011;27178;49.460;10.850;2023-09-18T10:31:14;4.15;;;1.83;;
41436;SDS011;27178;49.460;10.850;2023-09-18T10:33:44;2.72;;;1.70;;
41436;SDS011;27178;49.460;10.850;2023-09-18T10:36:12;3.25;;;1.67;;
41436;SDS011;27178;49.460;10.850;2023-09-18T10:38:40;3.78;;;1.50;;
41436;SDS011;27178;49.460;10.850;2023-09-18T10:41:10;4.07;;;1.75;;
41436;SDS011;27178;49.460;10.850;2023-09-18T10:43:39;4.25;;;1.95;;
41436;SDS011;27178;49.460;10.850;2023-09-18T10:46:08;2.67;;;1.80;;
41436;SDS011;27178;49.460;10.850;2023-09-18T10:48:37;3.92;;;1.83;;
41436;SDS011;27178;49.460;10.850;2023-09-18T10:51:10;2.53;;;1.58;;
41436;SDS011;27178;49.460;10.850;2023-09-18T10:53:40;2.95;;;1.65;;
41436;SDS011;27178;49.460;10.850;2023-09-18T10:56:08;4.35;;;1.60;;
41436;SDS011;27178;49.460;10.850;2023-09-18T10:58:37;1.60;;;1.33;;
41436;SDS011;27178;49.460;10.850;2023-09-18T11:01:05;2.78;;;1.50;;
41436;SDS011;27178;49.460;10.850;2023-09-18T11:03:35;4.28;;;1.77;;
41436;SDS011;27178;49.460;10.850;2023-09-18T11:06:07;2.05;;;1.48;;
41436;SDS011;27178;49.460;10.850;2023-09-18T11:08:42;1.63;;;1.25;;
41436;SDS011;27178;49.460;10.850;2023-09-18T11:11:12;4.78;;;1.20;;
41436;SDS011;27178;49.460;10.850;2023-09-18T11:13:43;2.83;;;1.40;;
41436;SDS011;27178;49.460;10.850;2023-09-18T11:16:14;3.42;;;1.40;;
41436;SDS011;27178;49.460;10.850;2023-09-18T11:18:51;1.30;;;1.08;;
41436;SDS011;27178;49.460;10.850;2023-09-18T11:21:23;2.65;;;1.20;;
41436;SDS011;27178;49.460;10.850;2023-09-18T11:23:59;3.00;;;1.30;;
41436;SDS011;27178;49.460;10.850;2023-09-18T11:26:31;3.95;;;1.40;;
41436;SDS011;27178;49.460;10.850;2023-09-18T11:29:00;2.88;;;1.17;;
41436;SDS011;27178;49.460;10.850;2023-09-18T11:31:41;5.00;;;1.33;;
41436;SDS011;27178;49.460;10.850;2023-09-18T11:34:12;4.65;;;0.88;;
41436;SDS011;27178;49.460;10.850;2023-09-18T11:36:42;1.92;;;1.15;;
41436;SDS011;27178;49.460;10.850;2023-09-18T11:39:10;1.58;;;1.13;;
41436;SDS011;27178;49.460;10.850;2023-09-18T11:41:40;1.35;;;1.00;;
41436;SDS011;27178;49.460;10.850;2023-09-18T11:47:00;1.67;;;1.40;;
41436;SDS011;27178;49.460;10.850;2023-09-18T11:49:32;1.65;;;1.08;;
41436;SDS011;27178;49.460;10.850;2023-09-18T11:52:00;2.72;;;1.42;;
41436;SDS011;27178;49.460;10.850;2023-09-18T11:54:31;2.35;;;1.00;;
41436;SDS011;27178;49.460;10.850;2023-09-18T11:57:04;2.13;;;1.08;;
41436;SDS011;27178;49.460;10.850;2023-09-18T11:59:34;3.20;;;1.08;;
41436;SDS011;27178;49.460;10.850;2023-09-18T12:02:10;3.20;;;1.23;;
41436;SDS011;27178;49.460;10.850;2023-09-18T12:04:48;3.35;;;1.27;;
41436;SDS011;27178;49.460;10.850;2023-09-18T12:07:17;2.13;;;1.38;;
41436;SDS011;27178;49.460;10.850;2023-09-18T12:09:46;3.97;;;1.50;;
41436;SDS011;27178;49.460;10.850;2023-09-18T12:12:15;2.00;;;1.10;;
41436;SDS011;27178;49.460;10.850;2023-09-18T12:14:44;2.60;;;1.20;;
41436;SDS011;27178;49.460;10.850;2023-09-18T12:17:16;1.13;;;1.00;;
41436;SDS011;27178;49.460;10.850;2023-09-18T12:19:52;2.08;;;1.15;;
41436;SDS011;27178;49.460;10.850;2023-09-18T12:22:25;3.13;;;1.20;;
41436;SDS011;27178;49.460;10.850;2023-09-18T12:24:53;2.40;;;1.13;;
41436;SDS011;27178;49.460;10.850;2023-09-18T12:27:40;2.35;;;0.82;;
41436;SDS011;27178;49.460;10.850;2023-09-18T12:30:09;3.40;;;1.10;;
41436;SDS011;27178;49.460;10.850;2023-09-18T12:32:38;2.22;;;1.05;;
41436;SDS011;27178;49.460;10.850;2023-09-18T12:35:08;2.30;;;1.30;;
41436;SDS011;27178;49.460;10.850;2023-09-18T12:37:39;2.50;;;1.20;;
41436;SDS011;27178;49.460;10.850;2023-09-18T12:40:10;1.98;;;1.13;;
41436;SDS011;27178;49.460;10.850;2023-09-18T12:42:49;1.98;;;1.00;;
41436;SDS011;27178;49.460;10.850;2023-09-18T12:45:18;1.83;;;0.88;;
41436;SDS011;27178;49.460;10.850;2023-09-18T12:47:46;1.65;;;0.88;;
41436;SDS011;27178;49.460;10.850;2023-09-18T12:50:17;2.80;;;1.10;;
41436;SDS011;27178;49.460;10.850;2023-09-18T12:52:45;2.58;;;1.25;;
41436;SDS011;27178;49.460;10.850;2023-09-18T12:55:20;3.75;;;1.40;;
41436;SDS011;27178;49.460;10.850;2023-09-18T12:57:52;1.70;;;1.00;;
41436;SDS011;27178;49.460;10.850;2023-09-18T13:00:22;1.48;;;0.90;;
41436;SDS011;27178;49.460;10.850;2023-09-18T13:02:53;1.92;;;1.00;;
41436;SDS011;27178;49.460;10.850;2023-09-18T13:05:24;2.22;;;0.90;;
41436;SDS011;27178;49.460;10.850;2023-09-18T13:07:53;5.20;;;1.05;;
41436;SDS011;27178;49.460;10.850;2023-09-18T13:10:22;2.10;;;1.40;;
41436;SDS011;27178;49.460;10.850;2023-09-18T13:13:04;2.40;;;1.05;;
41436;SDS011;27178;49.460;10.850;2023-09-18T13:15:32;6.28;;;1.40;;
41436;SDS011;27178;49.460;10.850;2023-09-18T13:18:10;3.03;;;1.30;;
41436;SDS011;27178;49.460;10.850;2023-09-18T13:20:39;1.55;;;1.10;;
41436;SDS011;27178;49.460;10.850;2023-09-18T13:23:08;2.10;;;1.27;;
41436;SDS011;27178;49.460;10.850;2023-09-18T13:25:38;1.35;;;0.80;;
41436;SDS011;27178;49.460;10.850;2023-09-18T13:28:10;2.15;;;1.17;;
41436;SDS011;27178;49.460;10.850;2023-09-18T13:30:40;1.20;;;1.10;;
41436;SDS011;27178;49.460;10.850;2023-09-18T13:33:10;2.42;;;1.35;;
41436;SDS011;27178;49.460;10.850;2023-09-18T13:35:40;2.67;;;1.30;;
41436;SDS011;27178;49.460;10.850;2023-09-18T13:38:10;2.38;;;1.10;;
41436;SDS011;27178;49.460;10.850;2023-09-18T13:40:38;3.28;;;1.30;;
41436;SDS011;27178;49.460;10.850;2023-09-18T13:43:08;2.10;;;1.10;;
41436;SDS011;27178;49.460;10.850;2023-09-18T13:45:37;2.55;;;1.10;;
41436;SDS011;27178;49.460;10.850;2023-09-18T13:48:06;3.33;;;1.13;;
41436;SDS011;27178;49.460;10.850;2023-09-18T13:50:36;1.70;;;1.30;;
41436;SDS011;27178;49.460;10.850;2023-09-18T13:53:05;1.70;;;1.17;;
41436;SDS011;27178;49.460;10.850;2023-09-18T13:55:34;1.33;;;1.20;;
41436;SDS011;27178;49.460;10.850;2023-09-18T13:58:03;2.20;;;1.17;;
41436;SDS011;27178;49.460;10.850;2023-09-18T14:00:31;1.52;;;1.00;;
41436;SDS011;27178;49.460;10.850;2023-09-18T14:02:59;1.23;;;1.00;;
41436;SDS011;27178;49.460;10.850;2023-09-18T14:05:29;1.27;;;1.17;;
41436;SDS011;27178;49.460;10.850;2023-09-18T14:08:00;2.05;;;1.00;;
41436;SDS011;27178;49.460;10.850;2023-09-18T14:10:30;1.35;;;1.08;;
41436;SDS011;27178;49.460;10.850;2023-09-18T14:12:58;2.17;;;1.20;;
41436;SDS011;27178;49.460;10.850;2023-09-18T14:15:27;2.65;;;1.17;;
41436;SDS011;27178;49.460;10.850;2023-09-18T14:17:55;2.38;;;1.52;;
41436;SDS011;27178;49.460;10.850;2023-09-18T14:20:24;2.22;;;1.10;;
41436;SDS011;27178;49.460;10.850;2023-09-18T14:22:52;1.52;;;1.30;;
41436;SDS011;27178;49.460;10.850;2023-09-18T14:25:20;1.92;;;1.05;;
41436;SDS011;27178;49.460;10.850;2023-09-18T14:27:50;3.92;;;1.42;;
41436;SDS011;27178;49.460;10.850;2023-09-18T14:30:19;1.33;;;1.00;;
41436;SDS011;27178;49.460;10.850;2023-09-18T14:32:48;1.05;;;1.00;;
41436;SDS011;27178;49.460;10.850;2023-09-18T14:35:17;2.80;;;1.20;;
41436;SDS011;27178;49.460;10.850;2023-09-18T14:37:45;0.95;;;0.90;;
41436;SDS011;27178;49.460;10.850;2023-09-18T14:40:14;1.88;;;1.20;;
41436;SDS011;27178;49.460;10.850;2023-09-18T14:42:42;1.83;;;1.20;;
41436;SDS011;27178;49.460;10.850;2023-09-18T14:45:12;1.73;;;1.45;;
41436;SDS011;27178;49.460;10.850;2023-09-18T14:47:40;1.95;;;1.20;;
41436;SDS011;27178;49.460;10.850;2023-09-18T14:50:09;1.15;;;1.00;;
41436;SDS011;27178;49.460;10.850;2023-09-18T14:52:37;1.30;;;1.00;;
41436;SDS011;27178;49.460;10.850;2023-09-18T14:55:06;1.77;;;1.15;;
41436;SDS011;27178;49.460;10.850;2023-09-18T14:57:37;1.10;;;1.00;;